Time;durP1;ratioP1;P1;durP2;ratioP2;P2;SDS_P1;SDS_P2;PMS_P1;PMS_P2;Temp;Humidity;BMP_temperature;BMP_pressure;BME280_temperature;BME280_humidity;BME280_pressure;Samples;Min_cycle;Max_cycle;Signal;HPM_P1;HPM_P2
2021/03/10 00:00:27;;;;;;;9.38;7.32;;;4.40;90.50;11.80;99689.00;;;;5048200;28;20237;-66
2021/03/10 00:02:53;;;;;;;8.33;6.93;;;4.40;90.40;11.80;99686.00;;;;5048755;28;20620;-67
2021/03/10 00:05:19;;;;;;;9.67;6.90;;;4.40;90.40;11.80;99683.00;;;;5049777;28;20273;-65
2021/03/10 00:07:45;;;;;;;10.00;6.80;;;4.40;90.40;11.90;99681.00;;;;5049546;28;20181;-65
2021/03/10 00:10:14;;;;;;;10.13;7.80;;;4.40;90.40;11.80;99687.00;;;;5048816;28;20688;-66
2021/03/10 00:12:41;;;;;;;10.73;7.13;;;4.40;90.40;11.80;99680.00;;;;5032213;28;20186;-66
2021/03/10 00:15:09;;;;;;;9.82;7.00;;;4.40;90.40;11.80;99686.00;;;;5031149;28;20204;-65
2021/03/10 00:17:34;;;;;;;9.45;7.25;;;4.40;90.40;11.80;99694.00;;;;5032123;28;20178;-65
2021/03/10 00:20:00;;;;;;;9.43;7.00;;;4.40;90.40;12.00;99680.00;;;;5048472;28;20202;-65
2021/03/10 00:22:26;;;;;;;8.43;5.90;;;4.40;90.40;11.90;99678.00;;;;5048319;28;20403;-65
2021/03/10 00:24:52;;;;;;;10.23;7.23;;;4.40;90.40;11.80;99697.00;;;;5048301;28;20472;-65
2021/03/10 00:27:24;;;;;;;10.53;7.27;;;4.40;90.40;11.90;99695.00;;;;5050052;28;20466;-66
2021/03/10 00:29:57;;;;;;;9.75;6.75;;;4.40;90.40;12.00;99696.00;;;;5047948;28;20174;-65
2021/03/10 00:32:25;;;;;;;9.27;6.60;;;4.40;90.40;11.90;99696.00;;;;5048540;28;20193;-65
2021/03/10 00:34:51;;;;;;;7.65;6.70;;;4.40;90.40;11.90;99693.00;;;;5048006;28;20323;-65
2021/03/10 00:37:17;;;;;;;8.90;6.70;;;4.40;90.40;11.80;99684.00;;;;5048105;28;20190;-65
2021/03/10 00:39:46;;;;;;;11.82;7.22;;;4.40;90.40;11.90;99689.00;;;;5047886;28;20700;-65
2021/03/10 00:42:12;;;;;;;9.75;7.10;;;4.40;90.40;11.90;99655.00;;;;5048353;28;20182;-65
2021/03/10 00:44:38;;;;;;;11.00;7.20;;;4.40;90.40;11.90;99696.00;;;;5044878;28;20216;-65
2021/03/10 00:47:04;;;;;;;8.95;6.80;;;4.30;90.30;11.80;99696.00;;;;5048396;28;20509;-65
2021/03/10 00:49:30;;;;;;;9.20;6.95;;;4.40;90.40;11.90;99697.00;;;;5047383;28;20178;-66
2021/03/10 00:51:56;;;;;;;9.60;7.13;;;4.40;90.40;11.60;99697.00;;;;5048830;28;20186;-65
2021/03/10 00:54:22;;;;;;;12.20;7.60;;;4.30;90.30;12.00;99700.00;;;;5051643;28;20244;-66
2021/03/10 00:56:48;;;;;;;11.75;6.93;;;4.30;90.30;11.90;99666.00;;;;5052193;28;20255;-65
2021/03/10 00:59:14;;;;;;;10.93;7.67;;;4.30;90.30;11.70;99704.00;;;;5051216;28;20580;-65
2021/03/10 01:01:40;;;;;;;9.37;6.80;;;4.30;90.30;11.60;99701.00;;;;5052998;28;21051;-65
2021/03/10 01:04:05;;;;;;;8.67;6.27;;;4.30;90.30;11.60;99695.00;;;;5050868;28;20229;-65
2021/03/10 01:06:31;;;;;;;9.97;7.83;;;4.30;90.30;11.70;99673.00;;;;5035011;28;20209;-65
2021/03/10 01:08:57;;;;;;;8.63;6.63;;;4.30;90.30;11.60;99707.00;;;;5052821;28;20236;-67
2021/03/10 01:11:22;;;;;;;10.10;6.80;;;4.30;90.30;11.60;99702.00;;;;5050868;28;20288;-65
2021/03/10 01:13:49;;;;;;;10.23;7.43;;;4.30;90.30;11.70;99701.00;;;;5051885;28;20182;-66
2021/03/10 01:16:15;;;;;;;10.45;6.60;;;4.30;90.30;11.70;99690.00;;;;5051364;28;20198;-65
2021/03/10 01:18:41;;;;;;;10.27;7.07;;;4.30;90.30;11.90;99690.00;;;;5034319;28;20273;-65
2021/03/10 01:21:06;;;;;;;10.90;6.73;;;4.30;90.30;11.70;99696.00;;;;5051783;28;20484;-65
2021/03/10 01:23:32;;;;;;;10.40;7.57;;;4.30;90.30;11.70;99707.00;;;;5052304;28;20631;-65
2021/03/10 01:25:58;;;;;;;9.60;7.23;;;4.30;90.30;11.90;99694.00;;;;5050624;28;20236;-65
2021/03/10 01:28:24;;;;;;;10.60;8.00;;;4.30;90.30;11.90;99700.00;;;;5051866;28;20185;-65
2021/03/10 01:30:50;;;;;;;11.07;7.57;;;4.30;90.30;11.60;99699.00;;;;5050989;28;20459;-65
2021/03/10 01:33:15;;;;;;;10.37;7.37;;;4.30;90.30;11.80;99685.00;;;;5067707;28;20955;-66
2021/03/10 01:35:41;;;;;;;8.53;6.20;;;4.30;90.30;11.70;99696.00;;;;5051904;28;20388;-65
2021/03/10 01:38:07;;;;;;;9.57;7.50;;;4.30;90.30;11.70;99686.00;;;;5051458;28;20178;-67
2021/03/10 01:40:33;;;;;;;9.97;6.50;;;4.30;90.30;11.60;99680.00;;;;5050745;28;20452;-65
2021/03/10 01:43:03;;;;;;;9.60;6.70;;;4.30;90.30;11.60;99691.00;;;;5051339;28;20591;-66
2021/03/10 01:45:29;;;;;;;12.40;7.78;;;4.30;90.30;11.80;99693.00;;;;5049759;28;20217;-65
2021/03/10 01:47:54;;;;;;;9.70;6.87;;;4.30;90.30;11.80;99681.00;;;;5051470;28;20672;-66
2021/03/10 01:50:20;;;;;;;10.30;7.27;;;4.30;90.30;11.60;99694.00;;;;5050211;28;20631;-65
2021/03/10 01:52:46;;;;;;;7.63;6.60;;;4.30;90.30;11.70;99676.00;;;;5050682;28;20541;-65
2021/03/10 01:55:12;;;;;;;11.40;7.40;;;4.30;90.30;11.60;99673.00;;;;5050238;28;20444;-65
2021/03/10 01:57:38;;;;;;;9.25;6.80;;;4.20;90.20;11.70;99667.00;;;;5051204;28;20186;-65
2021/03/10 02:00:09;;;;;;;9.03;6.37;;;4.30;90.30;11.60;99680.00;;;;5050142;28;20206;-65
2021/03/10 02:02:35;;;;;;;10.43;7.63;;;4.30;90.30;11.40;99670.00;;;;5034484;28;20432;-66
2021/03/10 02:05:01;;;;;;;9.20;6.37;;;4.30;90.30;11.60;99670.00;;;;5050131;28;20225;-65
2021/03/10 02:08:07;;;;;;;9.23;7.20;;;4.20;90.20;11.70;99678.00;;;;5033980;28;20694;-65
2021/03/10 02:10:39;;;;;;;10.23;7.32;;;4.20;90.20;11.40;99667.00;;;;5051970;28;20723;-66
2021/03/10 02:13:24;;;;;;;9.55;7.10;;;4.20;90.20;11.60;99664.00;;;;5051817;28;20675;-66
2021/03/10 02:16:25;;;;;;;10.98;7.82;;;4.20;90.20;11.40;99669.00;;;;5049583;28;20213;-65
2021/03/10 02:19:00;;;;;;;9.15;6.50;;;4.20;90.20;11.50;99663.00;;;;5051117;28;20189;-65
2021/03/10 02:21:37;;;;;;;9.23;6.28;;;4.20;90.20;11.60;99660.00;;;;5049960;28;20197;-65
2021/03/10 02:24:27;;;;;;;10.73;7.30;;;4.20;90.20;11.60;99660.00;;;;5034047;28;20609;-65
2021/03/10 02:27:31;;;;;;;10.65;7.10;;;4.20;90.20;11.80;99657.00;;;;5067185;28;20210;-65
2021/03/10 02:30:10;;;;;;;8.07;6.25;;;4.20;90.20;11.50;99653.00;;;;5052084;28;20210;-65
2021/03/10 02:32:43;;;;;;;10.10;7.50;;;4.20;90.20;11.60;99656.00;;;;5034387;28;20189;-65
2021/03/10 02:35:09;;;;;;;10.75;7.30;;;4.20;90.20;11.50;99662.00;;;;5048790;28;20265;-65
2021/03/10 02:37:36;;;;;;;9.57;6.65;;;4.20;90.20;11.60;99667.00;;;;5033901;28;20182;-65
2021/03/10 02:40:04;;;;;;;9.70;6.70;;;4.20;90.20;11.50;99646.00;;;;5049596;28;20217;-65
2021/03/10 02:42:29;;;;;;;10.07;7.55;;;4.20;90.20;11.40;99643.00;;;;5033392;28;20200;-66
2021/03/10 02:44:55;;;;;;;12.13;7.70;;;4.20;90.20;11.40;99645.00;;;;5049693;28;20222;-65
2021/03/10 02:47:24;;;;;;;9.23;6.40;;;4.20;90.20;11.60;99641.00;;;;5050082;28;20244;-65
2021/03/10 02:49:51;;;;;;;10.77;7.30;;;4.20;90.20;11.60;99647.00;;;;5049441;28;20421;-65
2021/03/10 02:52:17;;;;;;;10.10;7.30;;;4.20;90.20;11.70;99651.00;;;;5050257;28;20194;-65
2021/03/10 02:54:42;;;;;;;8.90;6.57;;;4.20;90.20;11.60;99653.00;;;;5049607;28;20198;-65
2021/03/10 02:57:08;;;;;;;9.43;7.73;;;4.20;90.20;11.40;99640.00;;;;5032290;28;20182;-65
2021/03/10 02:59:34;;;;;;;11.67;7.07;;;4.20;90.20;11.40;99656.00;;;;5049940;28;20186;-65
2021/03/10 03:01:59;;;;;;;9.00;7.03;;;4.20;90.20;11.60;99654.00;;;;5049583;28;20177;-65
2021/03/10 03:04:25;;;;;;;9.10;7.13;;;4.20;90.20;11.50;99624.00;;;;5049445;28;20692;-67
2021/03/10 03:06:51;;;;;;;8.33;6.63;;;4.20;90.20;11.50;99654.00;;;;5049094;28;20294;-65
2021/03/10 03:09:17;;;;;;;10.37;6.93;;;4.20;90.20;11.40;99669.00;;;;5049795;28;20178;-65
2021/03/10 03:11:42;;;;;;;9.20;7.00;;;4.20;90.20;11.20;99675.00;;;;5049006;28;20202;-65
2021/03/10 03:14:08;;;;;;;10.70;7.50;;;4.20;90.20;11.40;99669.00;;;;5050015;28;20193;-65
2021/03/10 03:16:34;;;;;;;13.27;7.43;;;4.20;90.20;11.40;99681.00;;;;5049163;28;20205;-65
2021/03/10 03:19:01;;;;;;;11.50;7.90;;;4.20;90.20;11.50;99676.00;;;;5049368;28;20257;-65
2021/03/10 03:21:27;;;;;;;13.63;7.63;;;4.10;90.20;11.60;99671.00;;;;5049221;28;20205;-65
2021/03/10 03:23:52;;;;;;;9.47;7.00;;;4.20;90.20;11.60;99668.00;;;;5048898;28;20218;-66
2021/03/10 03:26:18;;;;;;;9.63;7.23;;;4.20;90.20;11.50;99683.00;;;;5048956;28;20216;-66
2021/03/10 03:28:44;;;;;;;8.77;7.23;;;4.20;90.20;11.40;99692.00;;;;5032914;28;20182;-67
2021/03/10 03:31:10;;;;;;;9.23;6.53;;;4.10;90.10;11.20;99682.00;;;;5047834;28;20435;-67
2021/03/10 03:33:35;;;;;;;9.60;7.00;;;4.20;90.20;11.30;99680.00;;;;5050255;28;20182;-66
2021/03/10 03:36:01;;;;;;;11.60;7.60;;;4.20;90.20;11.30;99678.00;;;;5032249;28;20708;-65
2021/03/10 03:38:27;;;;;;;8.90;6.80;;;4.20;90.20;11.20;99674.00;;;;5048762;28;20174;-66
2021/03/10 03:40:54;;;;;;;10.65;7.38;;;4.10;90.10;11.30;99682.00;;;;5048689;28;20232;-66
2021/03/10 03:43:22;;;;;;;9.45;7.65;;;4.20;90.20;11.50;99672.00;;;;5049127;28;20201;-66
2021/03/10 03:45:47;;;;;;;10.18;7.47;;;4.10;90.10;11.30;99680.00;;;;5031009;28;20570;-65
2021/03/10 03:48:13;;;;;;;8.50;6.60;;;4.10;90.10;11.30;99665.00;;;;5049062;28;20272;-66
2021/03/10 03:50:40;;;;;;;8.50;6.67;;;4.10;90.10;11.40;99677.00;;;;5031948;28;20198;-66
2021/03/10 03:53:06;;;;;;;10.05;6.95;;;4.10;90.10;11.30;99674.00;;;;5048445;28;20192;-66
2021/03/10 03:55:32;;;;;;;12.43;8.43;;;4.10;90.10;11.30;99677.00;;;;5048754;28;20289;-66
2021/03/10 03:57:57;;;;;;;10.27;6.80;;;4.10;90.10;11.40;99670.00;;;;5048579;28;20224;-66
2021/03/10 04:00:25;;;;;;;9.57;6.73;;;4.10;90.10;11.40;99668.00;;;;5048200;28;20703;-66
2021/03/10 04:02:52;;;;;;;10.23;6.93;;;4.10;90.10;11.60;99658.00;;;;5049220;28;20565;-66
2021/03/10 04:05:18;;;;;;;10.73;7.20;;;4.10;90.20;11.50;99669.00;;;;5048450;28;20245;-66
2021/03/10 04:07:56;;;;;;;10.13;6.75;;;4.10;90.10;11.40;99673.00;;;;5048609;28;20185;-66
2021/03/10 04:10:29;;;;;;;11.35;7.13;;;4.10;90.20;11.50;99676.00;;;;5048847;28;20263;-66
2021/03/10 04:12:54;;;;;;;8.80;6.30;;;4.10;90.20;11.30;99693.00;;;;5047754;28;20186;-65
2021/03/10 04:15:21;;;;;;;9.10;6.53;;;4.10;90.10;11.30;99673.00;;;;5048366;28;20687;-65
2021/03/10 04:17:47;;;;;;;10.38;6.88;;;4.10;90.10;11.30;99673.00;;;;5048681;28;20437;-67
2021/03/10 04:20:17;;;;;;;10.23;7.70;;;4.10;90.50;11.20;99694.00;;;;5048336;28;20225;-66
2021/03/10 04:22:45;;;;;;;11.82;7.95;;;4.10;90.10;11.40;99689.00;;;;5048494;28;20668;-65
2021/03/10 04:25:11;;;;;;;10.02;7.63;;;4.10;90.10;11.30;99689.00;;;;5048125;28;20226;-65
2021/03/10 04:27:37;;;;;;;9.27;6.93;;;4.10;90.10;11.10;99680.00;;;;5049328;28;20314;-66
2021/03/10 04:30:04;;;;;;;9.90;7.33;;;4.10;90.10;11.10;99684.00;;;;5052913;28;20206;-65
2021/03/10 04:32:30;;;;;;;11.05;7.85;;;4.10;90.20;11.20;99689.00;;;;5052103;28;20520;-65
2021/03/10 04:34:56;;;;;;;10.23;7.13;;;4.10;90.10;11.10;99676.00;;;;5053325;28;20324;-65
2021/03/10 04:37:21;;;;;;;9.50;7.47;;;4.00;90.10;11.20;99687.00;;;;5052134;28;20182;-66
2021/03/10 04:39:47;;;;;;;9.30;6.97;;;4.10;90.10;11.30;99688.00;;;;5052773;28;20554;-65
2021/03/10 04:42:13;;;;;;;10.10;7.17;;;4.10;90.10;11.10;99689.00;;;;5051491;28;20543;-67
2021/03/10 04:44:38;;;;;;;10.47;7.00;;;4.10;90.10;11.40;99695.00;;;;5053462;28;20210;-65
2021/03/10 04:47:04;;;;;;;10.50;7.70;;;4.10;90.10;11.30;99687.00;;;;5051851;28;20232;-66
2021/03/10 04:49:30;;;;;;;8.50;7.30;;;4.10;90.10;11.30;99687.00;;;;5052027;28;20186;-67
2021/03/10 04:51:56;;;;;;;10.07;7.47;;;4.00;90.10;11.30;99694.00;;;;5052050;28;20607;-67
2021/03/10 04:54:21;;;;;;;10.17;6.77;;;4.10;90.10;11.30;99696.00;;;;5053460;28;20273;-66
2021/03/10 04:56:47;;;;;;;10.80;7.70;;;4.10;90.10;11.10;99688.00;;;;5053030;28;20610;-66
2021/03/10 04:59:13;;;;;;;12.50;7.50;;;4.00;90.10;11.10;99669.00;;;;5052412;28;20763;-65
2021/03/10 05:01:39;;;;;;;12.37;7.83;;;4.00;90.10;11.10;99702.00;;;;5034935;28;20777;-65
2021/03/10 05:04:04;;;;;;;10.10;7.40;;;4.00;90.10;11.40;99699.00;;;;5068065;28;20216;-66
2021/03/10 05:06:30;;;;;;;10.07;8.03;;;4.00;90.10;11.20;99691.00;;;;5051920;28;20202;-65
2021/03/10 05:08:56;;;;;;;9.00;6.70;;;4.00;90.10;11.30;99694.00;;;;5051507;28;20437;-66
2021/03/10 05:11:22;;;;;;;11.60;7.30;;;4.00;90.10;11.30;99683.00;;;;5052095;28;20444;-65
2021/03/10 05:13:48;;;;;;;9.53;7.23;;;4.00;90.10;11.40;99709.00;;;;5051554;28;20498;-66
2021/03/10 05:16:14;;;;;;;11.20;7.70;;;4.00;90.10;11.30;99703.00;;;;5051535;28;20685;-65
2021/03/10 05:18:40;;;;;;;9.93;7.55;;;4.00;90.00;11.20;99707.00;;;;5050811;28;20752;-65
2021/03/10 05:21:06;;;;;;;8.20;6.67;;;4.00;90.00;11.10;99695.00;;;;5051583;28;20277;-66
2021/03/10 05:23:32;;;;;;;10.35;6.93;;;4.00;90.00;11.10;99706.00;;;;5051511;28;20283;-66
2021/03/10 05:25:58;;;;;;;10.20;7.63;;;4.00;90.00;11.40;99710.00;;;;5051489;28;20234;-66
2021/03/10 05:28:24;;;;;;;8.97;6.90;;;4.00;90.00;11.40;99709.00;;;;5051104;28;20186;-66
2021/03/10 05:30:49;;;;;;;9.97;8.17;;;4.00;90.10;11.10;99714.00;;;;5051185;28;20433;-65
2021/03/10 05:33:15;;;;;;;10.63;7.40;;;4.00;90.10;11.10;99715.00;;;;5050984;28;20186;-66
2021/03/10 05:35:41;;;;;;;9.03;7.00;;;4.00;90.00;11.20;99714.00;;;;5035370;28;20586;-65
2021/03/10 05:38:07;;;;;;;9.70;7.30;;;4.00;90.10;11.20;99723.00;;;;5051791;28;20192;-66
2021/03/10 05:40:33;;;;;;;10.50;7.17;;;4.00;90.00;11.10;99717.00;;;;5051378;28;20272;-66
2021/03/10 05:43:00;;;;;;;11.35;7.57;;;4.00;90.00;11.10;99719.00;;;;5050505;28;20178;-66
2021/03/10 05:45:26;;;;;;;11.07;7.50;;;4.00;90.00;11.30;99724.00;;;;5050657;28;20246;-65
2021/03/10 05:47:51;;;;;;;13.53;7.73;;;4.00;90.00;11.20;99719.00;;;;5050538;28;20205;-66
2021/03/10 05:50:17;;;;;;;18.80;7.53;;;4.00;90.00;11.20;99713.00;;;;5051501;28;20325;-65
2021/03/10 05:52:44;;;;;;;9.93;7.20;;;4.00;90.00;11.10;99723.00;;;;5050350;28;20731;-66
2021/03/10 05:55:10;;;;;;;9.98;7.40;;;4.00;90.40;11.00;99719.00;;;;5050710;28;20206;-65
2021/03/10 05:57:36;;;;;;;10.30;7.88;;;4.00;90.00;11.20;99737.00;;;;5034161;28;20208;-66
2021/03/10 06:00:15;;;;;;;8.73;7.23;;;4.00;90.00;11.10;99736.00;;;;5050627;28;20724;-65
2021/03/10 06:02:41;;;;;;;10.25;7.25;;;4.00;90.00;10.90;99726.00;;;;5050338;28;20918;-65
2021/03/10 06:05:26;;;;;;;12.98;8.18;;;3.90;90.00;11.20;99735.00;;;;5050887;28;20218;-66
2021/03/10 06:08:02;;;;;;;10.13;7.88;;;4.00;90.10;11.00;99733.00;;;;5050272;28;20189;-65
2021/03/10 06:10:41;;;;;;;10.32;6.78;;;4.00;90.00;11.00;99735.00;;;;5051109;28;20735;-66
2021/03/10 06:13:30;;;;;;;9.45;7.75;;;3.90;90.00;11.00;99736.00;;;;5050136;28;20213;-66
2021/03/10 06:15:58;;;;;;;12.23;7.75;;;3.90;90.00;11.00;99724.00;;;;5050985;28;20288;-66
2021/03/10 06:18:35;;;;;;;11.75;7.72;;;3.90;90.00;11.10;99732.00;;;;5052119;28;20642;-65
2021/03/10 06:21:09;;;;;;;10.20;8.43;;;3.90;90.00;11.00;99729.00;;;;5050148;28;20205;-65
2021/03/10 06:23:37;;;;;;;11.45;7.70;;;3.90;90.00;11.00;99737.00;;;;5051852;28;20360;-66
2021/03/10 06:26:03;;;;;;;9.38;7.35;;;3.90;90.00;10.80;99734.00;;;;5051973;28;20209;-66
2021/03/10 06:28:39;;;;;;;12.38;8.00;;;3.90;90.00;11.10;99728.00;;;;5050215;28;20174;-67
2021/03/10 06:31:27;;;;;;;12.80;7.50;;;3.90;90.00;10.80;99728.00;;;;5050490;28;20193;-66
2021/03/10 06:34:08;;;;;;;11.93;7.80;;;3.90;90.00;11.00;99743.00;;;;5049455;28;20716;-66
2021/03/10 06:36:49;;;;;;;10.38;7.38;;;3.90;90.00;11.10;99749.00;;;;5051606;28;20236;-66
2021/03/10 06:39:29;;;;;;;10.25;7.50;;;3.90;90.00;11.00;99751.00;;;;5049857;28;20518;-66
2021/03/10 06:41:55;;;;;;;12.35;7.78;;;3.90;90.00;11.00;99742.00;;;;5049783;28;20205;-67
2021/03/10 06:44:22;;;;;;;11.30;8.13;;;3.90;90.00;11.00;99763.00;;;;5033575;28;20534;-66
2021/03/10 06:47:04;;;;;;;9.95;7.55;;;3.90;90.00;11.00;99740.00;;;;5049295;28;20612;-66
2021/03/10 06:49:32;;;;;;;9.63;7.80;;;3.90;90.00;10.90;99771.00;;;;5049203;28;20178;-66
2021/03/10 06:52:08;;;;;;;11.00;8.52;;;3.90;90.00;11.00;99768.00;;;;5050121;28;20178;-66
2021/03/10 06:54:34;;;;;;;10.05;7.65;;;3.90;90.10;11.00;99767.00;;;;5033044;28;20664;-66
2021/03/10 06:57:10;;;;;;;11.57;8.45;;;3.90;90.10;11.00;99778.00;;;;5049863;28;20206;-66
2021/03/10 06:59:40;;;;;;;12.00;7.63;;;3.90;90.10;11.10;99782.00;;;;5049502;28;20198;-66
2021/03/10 07:02:28;;;;;;;10.73;7.15;;;3.90;90.10;10.90;99786.00;;;;5049172;28;20205;-66
2021/03/10 07:04:57;;;;;;;10.65;7.63;;;3.90;90.10;10.90;99767.00;;;;5062319;28;20220;-67
2021/03/10 07:07:24;;;;;;;9.25;7.55;;;3.90;90.00;11.00;99782.00;;;;5052807;28;20213;-66
2021/03/10 07:09:50;;;;;;;10.25;7.80;;;3.90;90.10;11.10;99788.00;;;;5038496;28;20269;-66
2021/03/10 07:12:18;;;;;;;13.15;8.18;;;3.90;90.10;11.10;99785.00;;;;5032314;28;20194;-66
2021/03/10 07:14:44;;;;;;;9.63;7.65;;;3.90;90.10;11.20;99785.00;;;;5016238;28;20186;-66
2021/03/10 07:17:12;;;;;;;10.90;8.27;;;3.90;90.10;11.10;99786.00;;;;5032014;28;20184;-66
2021/03/10 07:19:38;;;;;;;12.07;8.35;;;3.90;90.10;11.00;99798.00;;;;5031583;28;20672;-66
2021/03/10 07:22:16;;;;;;;9.60;8.25;;;3.90;90.10;11.10;99798.00;;;;5032129;28;20710;-67
2021/03/10 07:24:59;;;;;;;13.77;7.82;;;3.90;90.10;11.20;99802.00;;;;5031753;28;20217;-66
2021/03/10 07:27:25;;;;;;;10.10;7.75;;;3.90;90.10;11.20;99801.00;;;;5048572;28;20232;-66
2021/03/10 07:29:58;;;;;;;12.03;7.67;;;3.90;90.10;11.10;99788.00;;;;5031540;28;20178;-66
2021/03/10 07:32:25;;;;;;;11.25;7.90;;;3.90;90.10;11.00;99799.00;;;;5015429;28;20499;-66
2021/03/10 07:35:05;;;;;;;11.13;7.20;;;3.90;90.10;10.90;99787.00;;;;5032345;28;20233;-66
2021/03/10 07:37:31;;;;;;;10.77;7.70;;;3.90;90.20;11.10;99796.00;;;;5032778;28;20178;-66
2021/03/10 07:40:14;;;;;;;10.10;7.77;;;3.90;90.20;11.10;99782.00;;;;5031861;28;20210;-66
2021/03/10 07:42:57;;;;;;;14.27;8.45;;;3.90;90.20;10.90;99760.00;;;;5032934;28;20448;-66
2021/03/10 07:45:27;;;;;;;11.73;7.90;;;3.90;90.20;11.00;99799.00;;;;5047605;28;20980;-66
2021/03/10 07:47:53;;;;;;;12.15;8.10;;;3.90;90.20;10.80;99795.00;;;;5044387;28;20182;-66
2021/03/10 07:50:19;;;;;;;11.05;8.10;;;3.90;90.20;10.90;99797.00;;;;5031484;28;20194;-66
2021/03/10 07:52:54;;;;;;;10.97;7.47;;;3.90;90.20;11.10;99806.00;;;;5059584;28;20203;-66
2021/03/10 07:55:21;;;;;;;10.88;7.68;;;3.90;90.20;11.10;99804.00;;;;5069950;28;20282;-66
2021/03/10 07:57:54;;;;;;;9.40;7.65;;;3.90;90.20;11.20;99808.00;;;;5052582;28;20651;-66
2021/03/10 08:00:40;;;;;;;12.63;8.52;;;3.90;90.20;11.00;99817.00;;;;5067581;28;20197;-66
2021/03/10 08:03:06;;;;;;;10.27;7.25;;;3.90;90.20;11.10;99824.00;;;;5068439;28;20201;-66
2021/03/10 08:05:35;;;;;;;13.07;8.30;;;3.90;90.20;11.00;99805.00;;;;5033836;28;20221;-67
2021/03/10 08:08:14;;;;;;;8.90;7.30;;;3.90;90.20;11.30;99807.00;;;;5048319;28;20448;-66
2021/03/10 08:10:41;;;;;;;10.48;8.02;;;3.90;90.20;11.10;99810.00;;;;5031627;28;20622;-66
2021/03/10 08:13:20;;;;;;;11.00;8.65;;;3.90;90.20;11.10;99832.00;;;;5047989;28;20239;-66
2021/03/10 08:15:46;;;;;;;10.77;8.30;;;3.90;90.20;11.20;99818.00;;;;5047171;28;20281;-66
2021/03/10 08:18:12;;;;;;;11.63;8.13;;;3.90;90.20;11.10;99825.00;;;;5049339;28;20701;-67
2021/03/10 08:20:38;;;;;;;12.40;8.30;;;3.90;90.20;11.10;99825.00;;;;5031310;28;20464;-66
2021/03/10 08:23:05;;;;;;;13.93;8.47;;;3.90;90.20;11.00;99828.00;;;;5030980;28;20706;-66
2021/03/10 08:25:33;;;;;;;10.73;8.35;;;3.90;90.20;11.20;99830.00;;;;5014611;28;20843;-66
2021/03/10 08:28:12;;;;;;;10.60;7.78;;;3.90;90.20;11.10;99807.00;;;;5031619;28;20186;-66
2021/03/10 08:30:38;;;;;;;12.02;8.98;;;3.90;90.20;11.30;99828.00;;;;5032103;28;20205;-66
2021/03/10 08:33:08;;;;;;;12.50;8.70;;;3.90;90.20;11.40;99843.00;;;;5048725;28;20178;-67
2021/03/10 08:35:34;;;;;;;10.40;7.28;;;3.90;90.20;11.10;99833.00;;;;5048453;28;20750;-66
2021/03/10 08:38:02;;;;;;;10.53;7.40;;;3.90;90.20;11.30;99826.00;;;;5049821;28;20489;-66
2021/03/10 08:40:30;;;;;;;13.73;8.43;;;3.90;90.20;11.30;99839.00;;;;5047882;28;20510;-66
2021/03/10 08:42:57;;;;;;;10.73;7.75;;;3.90;90.20;11.30;99839.00;;;;5059185;28;20222;-66
2021/03/10 08:45:34;;;;;;;9.35;7.43;;;3.90;90.20;11.30;99811.00;;;;5068307;28;20209;-66
2021/03/10 08:48:07;;;;;;;10.95;8.38;;;3.90;90.30;11.10;99837.00;;;;5057361;28;20264;-66
2021/03/10 08:50:51;;;;;;;11.80;9.00;;;3.90;90.30;11.40;99825.00;;;;5063676;28;20217;-66
2021/03/10 08:53:17;;;;;;;11.57;7.85;;;3.90;90.30;11.20;99828.00;;;;5064658;28;20186;-66
2021/03/10 08:55:44;;;;;;;12.45;8.07;;;3.90;90.30;11.20;99783.00;;;;5046673;28;20206;-66
2021/03/10 08:58:18;;;;;;;11.20;7.80;;;3.90;90.30;11.50;99827.00;;;;5065065;28;20548;-66
2021/03/10 09:00:44;;;;;;;9.43;7.20;;;3.90;90.30;11.50;99839.00;;;;5019761;28;20210;-66
2021/03/10 09:03:14;;;;;;;11.37;8.03;;;3.90;90.30;11.60;99826.00;;;;5030371;28;20184;-66
2021/03/10 09:05:41;;;;;;;12.13;8.05;;;3.90;90.30;11.30;99828.00;;;;5047547;28;20947;-66
2021/03/10 09:08:07;;;;;;;9.52;7.22;;;3.90;90.30;11.50;99829.00;;;;5047890;28;20185;-66
2021/03/10 09:10:34;;;;;;;10.23;7.65;;;3.90;90.30;11.40;99829.00;;;;5046155;28;20213;-66
2021/03/10 09:13:00;;;;;;;11.77;8.23;;;3.90;90.30;11.10;99823.00;;;;5048052;28;20171;-66
2021/03/10 09:15:28;;;;;;;12.53;8.07;;;3.90;90.30;11.40;99826.00;;;;5033624;28;20198;-66
2021/03/10 09:18:03;;;;;;;11.40;7.75;;;3.90;90.30;11.60;99809.00;;;;5050654;28;20854;-67
2021/03/10 09:20:31;;;;;;;10.68;7.82;;;3.90;90.30;11.40;99819.00;;;;5033070;28;20221;-66
2021/03/10 09:22:58;;;;;;;11.48;8.00;;;3.90;90.30;11.10;99810.00;;;;5055180;28;20444;-66
2021/03/10 09:25:35;;;;;;;10.85;8.40;;;4.00;90.30;11.40;99817.00;;;;5050983;28;20233;-66
2021/03/10 09:28:05;;;;;;;11.20;8.18;;;3.90;90.30;11.30;99813.00;;;;5065320;28;20184;-66
2021/03/10 09:30:33;;;;;;;10.63;7.45;;;3.90;90.30;11.20;99799.00;;;;5054565;28;20201;-66
2021/03/10 09:32:58;;;;;;;9.63;7.40;;;4.00;90.30;11.10;99798.00;;;;5038261;28;20220;-67
2021/03/10 09:35:36;;;;;;;10.43;7.70;;;4.00;90.40;11.30;99806.00;;;;5071404;28;20244;-66
2021/03/10 09:38:06;;;;;;;10.77;7.95;;;4.00;90.30;11.30;99819.00;;;;5069663;28;20192;-67
2021/03/10 09:40:46;;;;;;;10.60;8.10;;;3.90;90.30;11.30;99802.00;;;;5037487;28;20206;-67
2021/03/10 09:43:19;;;;;;;11.40;7.78;;;4.00;90.40;11.30;99802.00;;;;5050727;28;20189;-66
2021/03/10 09:45:46;;;;;;;10.73;8.07;;;4.00;90.30;11.20;99791.00;;;;5050491;28;20692;-67
2021/03/10 09:48:26;;;;;;;10.73;7.22;;;4.00;90.30;11.10;99787.00;;;;5033807;28;20259;-66
2021/03/10 09:50:52;;;;;;;10.80;7.47;;;4.00;90.40;11.10;99800.00;;;;5048733;28;20212;-67
2021/03/10 09:53:26;;;;;;;10.37;7.93;;;4.00;90.40;11.30;99795.00;;;;5051054;28;20194;-68
2021/03/10 09:55:52;;;;;;;10.38;7.95;;;4.00;90.30;11.50;99802.00;;;;5050091;28;20571;-66
2021/03/10 09:58:18;;;;;;;10.90;6.88;;;4.00;90.30;11.20;99797.00;;;;5050004;28;20198;-66
2021/03/10 10:00:44;;;;;;;8.93;7.33;;;4.00;90.40;11.20;99802.00;;;;5049461;28;20209;-67
2021/03/10 10:03:11;;;;;;;9.88;7.30;;;4.00;90.40;11.20;99785.00;;;;5049626;28;20559;-66
2021/03/10 10:05:38;;;;;;;11.50;7.85;;;4.00;90.40;11.00;99782.00;;;;5032999;28;20209;-67
2021/03/10 10:08:06;;;;;;;10.77;7.40;;;4.00;90.40;11.30;99796.00;;;;5050087;28;20174;-67
2021/03/10 10:10:34;;;;;;;10.98;7.93;;;4.00;90.40;11.20;99792.00;;;;5033745;28;20210;-68
2021/03/10 10:13:00;;;;;;;10.10;7.63;;;4.00;90.40;11.20;99793.00;;;;5050133;28;20653;-67
2021/03/10 10:15:30;;;;;;;11.23;7.73;;;4.00;90.40;11.10;99795.00;;;;5054611;28;20211;-67
2021/03/10 10:17:57;;;;;;;8.73;6.93;;;4.00;90.40;11.20;99802.00;;;;5053515;28;20527;-67
2021/03/10 10:20:28;;;;;;;10.57;8.18;;;4.00;90.40;11.30;99803.00;;;;5069034;28;20205;-67
2021/03/10 10:22:54;;;;;;;8.30;6.63;;;4.00;90.40;11.40;99797.00;;;;5070813;28;20280;-67
2021/03/10 10:25:20;;;;;;;8.00;6.40;;;4.00;90.40;11.40;99796.00;;;;5051299;28;20305;-66
2021/03/10 10:27:47;;;;;;;10.17;7.07;;;4.00;90.40;11.50;99793.00;;;;5052455;28;20435;-67
2021/03/10 10:30:15;;;;;;;10.98;7.55;;;4.00;90.40;11.50;99788.00;;;;5053321;28;20452;-66
2021/03/10 10:32:45;;;;;;;12.40;7.95;;;4.00;90.40;11.30;99788.00;;;;5067722;28;20183;-67
2021/03/10 10:35:12;;;;;;;10.57;7.05;;;4.00;90.40;11.40;99769.00;;;;5051736;28;20237;-67
2021/03/10 10:37:38;;;;;;;10.15;7.30;;;4.00;90.40;11.50;99790.00;;;;5068159;28;20594;-67
2021/03/10 10:40:09;;;;;;;9.70;6.63;;;4.00;90.40;11.40;99792.00;;;;5069279;28;20201;-66
2021/03/10 10:42:35;;;;;;;9.75;6.93;;;4.00;90.40;11.30;99789.00;;;;5037257;28;20439;-67
2021/03/10 10:45:02;;;;;;;10.30;7.73;;;4.10;90.40;11.30;99803.00;;;;5042411;28;20657;-66
2021/03/10 10:47:28;;;;;;;10.57;7.15;;;4.00;90.40;11.50;99800.00;;;;5050030;28;20453;-67
2021/03/10 10:49:54;;;;;;;8.90;6.53;;;4.10;90.50;11.50;99788.00;;;;5069867;28;20613;-67
2021/03/10 10:52:25;;;;;;;9.90;7.07;;;4.00;90.40;11.60;99788.00;;;;5056795;28;20209;-67
2021/03/10 10:54:51;;;;;;;8.65;7.20;;;4.10;90.50;11.50;99778.00;;;;5050150;28;20229;-67
2021/03/10 10:57:17;;;;;;;11.80;7.50;;;4.10;90.50;11.40;99787.00;;;;5053876;28;20719;-68
2021/03/10 10:59:42;;;;;;;8.63;6.70;;;4.10;90.50;11.70;99798.00;;;;5052692;28;20810;-67
2021/03/10 11:02:08;;;;;;;10.80;7.70;;;4.10;90.50;11.60;99786.00;;;;5068704;28;20256;-68
2021/03/10 11:04:34;;;;;;;10.17;6.87;;;4.10;90.50;11.50;99776.00;;;;5070343;28;20212;-67